createdAt,value
2023-04-06T00:00:11.998Z,0.70
2023-04-06T00:02:40.291Z,0.70
2023-04-06T00:05:10.289Z,0.70
2023-04-06T00:07:38.659Z,0.70
2023-04-06T00:10:07.435Z,0.70
2023-04-06T00:12:35.814Z,0.70
2023-04-06T00:15:05.896Z,0.70
2023-04-06T00:17:38.871Z,0.70
2023-04-06T00:20:07.968Z,0.70
2023-04-06T00:22:37.879Z,0.70
2023-04-06T00:25:06.437Z,0.70
2023-04-06T00:27:34.633Z,0.70
2023-04-06T00:30:03.005Z,0.70
2023-04-06T00:32:31.314Z,0.70
2023-04-06T00:35:01.202Z,0.70
2023-04-06T00:37:29.420Z,0.70
2023-04-06T00:39:59.205Z,0.80
2023-04-06T00:42:27.540Z,0.80
2023-04-06T00:44:56.079Z,0.70
2023-04-06T00:47:24.390Z,0.70
2023-04-06T00:49:53.001Z,0.70
2023-04-06T00:52:23.676Z,0.70
2023-04-06T00:54:52.660Z,0.70
2023-04-06T00:57:22.314Z,0.70
2023-04-06T00:59:50.680Z,0.70
2023-04-06T01:02:18.889Z,0.70
2023-04-06T01:04:47.080Z,0.70
2023-04-06T01:07:15.671Z,0.70
2023-04-06T01:09:43.931Z,0.70
2023-04-06T01:12:12.246Z,0.70
2023-04-06T01:14:41.947Z,0.60
2023-04-06T01:17:10.103Z,0.60
2023-04-06T01:19:38.695Z,0.50
2023-04-06T01:22:06.879Z,0.40
2023-04-06T01:24:36.659Z,0.40
2023-04-06T01:27:04.892Z,0.40
2023-04-06T01:29:36.039Z,0.40
2023-04-06T01:32:04.422Z,0.40
2023-04-06T01:34:32.740Z,0.40
2023-04-06T01:37:01.026Z,0.40
2023-04-06T01:39:29.242Z,0.40
2023-04-06T01:41:58.940Z,0.40
2023-04-06T01:44:27.199Z,0.30
2023-04-06T01:46:55.771Z,0.30
2023-04-06T01:49:24.020Z,0.20
2023-04-06T01:51:52.938Z,0.20
2023-04-06T01:54:21.133Z,0.10
2023-04-06T01:56:51.340Z,-0.10
2023-04-06T01:59:21.219Z,-0.10
2023-04-06T02:01:49.463Z,-0.10
2023-04-06T02:04:17.677Z,-0.20
2023-04-06T02:06:48.065Z,-0.30
2023-04-06T02:09:16.966Z,-0.30
2023-04-06T02:11:45.132Z,-0.20
2023-04-06T02:14:13.338Z,-0.20
2023-04-06T02:16:43.225Z,-0.30
2023-04-06T02:19:14.487Z,-0.30
2023-04-06T02:21:42.668Z,-0.40
2023-04-06T02:24:11.004Z,-0.60
2023-04-06T02:26:39.220Z,-0.50
2023-04-06T02:29:08.495Z,-0.60
2023-04-06T02:31:37.000Z,-0.50
2023-04-06T02:34:06.727Z,-0.60
2023-04-06T02:36:37.614Z,-0.50
2023-04-06T02:39:05.779Z,-0.50
2023-04-06T02:41:34.241Z,-0.50
2023-04-06T02:44:02.472Z,-0.70
2023-04-06T02:46:30.867Z,-0.70
2023-04-06T02:49:01.441Z,-0.70
2023-04-06T02:51:31.222Z,-0.70
2023-04-06T02:53:59.480Z,-0.80
2023-04-06T02:56:27.670Z,-0.90
2023-04-06T02:58:56.189Z,-0.80
2023-04-06T03:01:24.404Z,-0.80
2023-04-06T03:03:52.805Z,-0.70
2023-04-06T03:06:21.118Z,-0.80
2023-04-06T03:08:50.947Z,-0.90
2023-04-06T03:11:19.312Z,-0.90
2023-04-06T03:13:47.479Z,-0.80
2023-04-06T03:16:16.579Z,-0.70
2023-04-06T03:18:45.843Z,-0.70
2023-04-06T03:21:14.099Z,-0.80
2023-04-06T03:23:42.407Z,-0.90
2023-04-06T03:26:12.008Z,-0.90
2023-04-06T03:28:43.178Z,-0.90
2023-04-06T03:31:11.377Z,-1.00
2023-04-06T03:33:39.741Z,-1.10
2023-04-06T03:36:09.131Z,-1.20
2023-04-06T03:38:38.692Z,-1.20
2023-04-06T03:41:08.510Z,-1.10
2023-04-06T03:43:38.106Z,-1.20
2023-04-06T03:46:06.571Z,-1.10
2023-04-06T03:48:34.742Z,-1.20
2023-04-06T03:51:02.948Z,-1.10
2023-04-06T03:53:31.166Z,-1.10
2023-04-06T03:56:04.151Z,-1.20
2023-04-06T03:58:33.295Z,-1.20
2023-04-06T04:01:02.949Z,-1.30
2023-04-06T04:03:31.192Z,-1.40
2023-04-06T04:05:59.599Z,-1.50
2023-04-06T04:08:27.786Z,-1.40
2023-04-06T04:10:56.071Z,-1.30
2023-04-06T04:13:24.493Z,-1.20
2023-04-06T04:15:52.702Z,-1.20
2023-04-06T04:18:22.373Z,-1.20
2023-04-06T04:20:50.772Z,-1.10
2023-04-06T04:23:19.051Z,-1.00
2023-04-06T04:25:47.174Z,-1.20
2023-04-06T04:28:15.606Z,-1.20
2023-04-06T04:30:43.735Z,-1.00
2023-04-06T04:33:11.921Z,-1.00
2023-04-06T04:35:41.705Z,-1.00
2023-04-06T04:38:09.916Z,-0.90
2023-04-06T04:40:38.084Z,-0.90
2023-04-06T04:43:06.380Z,-0.80
2023-04-06T04:45:34.786Z,-0.70
2023-04-06T04:48:03.215Z,-0.70
2023-04-06T04:50:31.477Z,-0.80
2023-04-06T04:53:01.132Z,-0.80
2023-04-06T04:55:30.364Z,-0.80
2023-04-06T04:57:58.607Z,-0.70
2023-04-06T05:00:27.041Z,-0.70
2023-04-06T05:02:55.344Z,-0.70
2023-04-06T05:05:23.650Z,-0.60
2023-04-06T05:07:51.958Z,-0.60
2023-04-06T05:10:21.688Z,-0.70
2023-04-06T05:12:50.003Z,-0.80
2023-04-06T05:15:18.400Z,-0.70
2023-04-06T05:17:46.646Z,-0.50
2023-04-06T05:20:15.181Z,-0.50
2023-04-06T05:22:43.450Z,-0.50
2023-04-06T05:25:11.693Z,-0.60
2023-04-06T05:27:41.762Z,-0.80
2023-04-06T05:30:10.781Z,-0.70
2023-04-06T05:32:39.042Z,-0.60
2023-04-06T05:35:07.798Z,-0.40
2023-04-06T05:37:35.998Z,-0.50
2023-04-06T05:40:04.908Z,-0.60
2023-04-06T05:42:39.011Z,-0.60
2023-04-06T05:45:09.624Z,-0.70
2023-04-06T05:47:37.870Z,-0.80
2023-04-06T05:50:06.653Z,-0.70
2023-04-06T05:52:36.463Z,-0.50
2023-04-06T05:55:05.021Z,-0.50
2023-04-06T05:57:33.285Z,-0.30
2023-04-06T06:00:01.456Z,-0.10
2023-04-06T06:02:32.727Z,0.10
2023-04-06T06:05:01.148Z,0.20
2023-04-06T06:07:29.701Z,0.30
2023-04-06T06:09:59.272Z,0.50
2023-04-06T06:12:29.812Z,0.20
2023-04-06T06:14:58.310Z,0.40
2023-04-06T06:17:26.610Z,0.20
2023-04-06T06:19:56.925Z,0.30
2023-04-06T06:22:25.146Z,0.60
2023-04-06T06:24:53.369Z,0.80
2023-04-06T06:27:22.957Z,0.80
2023-04-06T06:29:51.180Z,1.00
2023-04-06T06:32:19.510Z,0.50
2023-04-06T06:34:47.930Z,0.40
2023-04-06T06:37:17.777Z,0.10
2023-04-06T06:39:45.972Z,0.20
2023-04-06T06:42:14.833Z,0.50
2023-04-06T06:44:43.148Z,0.30
2023-04-06T06:47:11.477Z,0.70
2023-04-06T06:49:39.841Z,0.90
2023-04-06T06:52:08.212Z,1.10
2023-04-06T06:54:37.875Z,1.40
2023-04-06T06:57:06.011Z,1.50
2023-04-06T06:59:34.503Z,1.70
2023-04-06T07:02:02.873Z,1.50
2023-04-06T07:04:31.424Z,1.30
2023-04-06T07:06:59.815Z,1.60
2023-04-06T07:09:28.266Z,1.60
2023-04-06T07:11:58.398Z,1.40
2023-04-06T07:14:27.647Z,1.80
2023-04-06T07:16:55.939Z,1.80
2023-04-06T07:19:27.117Z,1.40
2023-04-06T07:21:57.827Z,1.60
2023-04-06T07:24:26.173Z,2.00
2023-04-06T07:26:54.378Z,2.30
2023-04-06T07:29:24.149Z,2.30
2023-04-06T07:31:52.639Z,2.40
2023-04-06T07:34:21.278Z,2.20
2023-04-06T07:36:49.692Z,2.00
2023-04-06T07:39:20.214Z,2.20
2023-04-06T07:41:48.418Z,2.00
2023-04-06T07:44:16.830Z,2.20
2023-04-06T07:46:46.428Z,2.60
2023-04-06T07:49:14.704Z,2.60
2023-04-06T07:51:43.392Z,2.80
2023-04-06T07:54:11.648Z,3.00
2023-04-06T07:56:39.902Z,2.30
2023-04-06T07:59:08.185Z,2.80
2023-04-06T08:01:38.684Z,2.90
2023-04-06T08:04:11.879Z,2.70
2023-04-06T08:06:44.127Z,3.10
2023-04-06T08:09:12.554Z,3.40
2023-04-06T08:11:40.745Z,3.70
2023-04-06T08:14:09.326Z,3.70
2023-04-06T08:16:37.691Z,3.70
2023-04-06T08:19:06.079Z,3.80
2023-04-06T08:21:35.911Z,3.10
2023-04-06T08:24:04.191Z,2.80
2023-04-06T08:26:32.347Z,3.10
2023-04-06T08:29:00.709Z,3.40
2023-04-06T08:31:28.990Z,3.00
2023-04-06T08:33:57.281Z,3.50
2023-04-06T08:36:25.570Z,3.80
2023-04-06T08:38:55.922Z,4.20
2023-04-06T08:41:24.312Z,4.40
2023-04-06T08:43:55.052Z,4.60
2023-04-06T08:46:24.428Z,4.70
2023-04-06T08:48:52.929Z,4.80
2023-04-06T08:51:21.424Z,3.70
2023-04-06T08:53:59.947Z,4.00
2023-04-06T08:56:30.241Z,4.80
2023-04-06T08:59:07.399Z,4.80
2023-04-06T09:01:36.545Z,4.70
2023-04-06T09:04:13.866Z,4.50
2023-04-06T09:06:42.656Z,4.50
2023-04-06T09:09:10.949Z,4.50
2023-04-06T09:11:53.091Z,3.70
2023-04-06T09:14:35.814Z,3.80
2023-04-06T09:17:04.026Z,3.70
2023-04-06T09:19:32.275Z,4.50
2023-04-06T09:22:04.277Z,4.90
2023-04-06T09:24:42.123Z,5.10
2023-04-06T09:27:11.743Z,4.60
2023-04-06T09:29:39.951Z,3.20
2023-04-06T09:32:08.961Z,2.40
2023-04-06T09:34:37.309Z,1.90
2023-04-06T09:37:19.771Z,2.40
2023-04-06T09:39:48.254Z,3.00
2023-04-06T09:42:27.846Z,2.90
2023-04-06T09:44:56.731Z,2.60
2023-04-06T09:47:27.769Z,2.00
2023-04-06T09:49:58.206Z,2.10
2023-04-06T09:52:28.703Z,3.00
2023-04-06T09:55:00.911Z,3.30
2023-04-06T09:57:33.117Z,2.50
2023-04-06T10:00:09.256Z,2.20
2023-04-06T10:02:41.776Z,1.70
2023-04-06T10:05:12.158Z,1.40
2023-04-06T10:07:56.797Z,1.40
2023-04-06T10:10:28.242Z,2.60
2023-04-06T10:12:58.640Z,1.70
2023-04-06T10:15:26.804Z,2.40
2023-04-06T10:17:55.114Z,3.20
2023-04-06T10:20:25.961Z,2.30
2023-04-06T10:22:58.073Z,2.10
2023-04-06T10:25:29.766Z,2.60
2023-04-06T10:28:07.756Z,2.50
2023-04-06T10:30:36.353Z,3.30
2023-04-06T10:33:15.024Z,3.50
2023-04-06T10:35:43.446Z,3.10
2023-04-06T10:38:14.647Z,2.90
2023-04-06T10:40:44.052Z,3.50
2023-04-06T10:43:15.445Z,3.30
2023-04-06T10:45:44.519Z,3.30
2023-04-06T10:48:17.067Z,2.80
2023-04-06T10:50:46.408Z,2.50
2023-04-06T10:53:23.118Z,1.80
2023-04-06T10:55:52.214Z,1.70
2023-04-06T10:58:22.199Z,1.80
2023-04-06T11:00:51.571Z,2.50
2023-04-06T11:03:20.511Z,2.80
2023-04-06T11:05:49.007Z,3.00
2023-04-06T11:08:31.844Z,3.00
2023-04-06T11:11:06.722Z,2.90
2023-04-06T11:13:47.444Z,2.70
2023-04-06T11:16:16.948Z,2.20
2023-04-06T11:18:52.082Z,2.40
2023-04-06T11:21:20.764Z,2.30
2023-04-06T11:23:51.192Z,2.30
2023-04-06T11:26:19.352Z,2.30
2023-04-06T11:28:48.999Z,2.40
2023-04-06T11:31:17.368Z,2.30
2023-04-06T11:33:45.734Z,2.40
2023-04-06T11:36:16.718Z,2.10
2023-04-06T11:38:45.118Z,2.10
2023-04-06T11:41:13.989Z,1.70
2023-04-06T11:43:48.182Z,2.00
2023-04-06T11:46:21.448Z,2.40
2023-04-06T11:48:49.895Z,2.70
2023-04-06T11:51:24.245Z,2.90
2023-04-06T11:53:53.057Z,2.40
2023-04-06T11:56:27.885Z,1.80
2023-04-06T11:58:59.830Z,1.70
2023-04-06T12:01:30.837Z,1.60
2023-04-06T12:03:59.952Z,1.30
2023-04-06T12:06:28.782Z,1.30
2023-04-06T12:08:59.559Z,1.70
2023-04-06T12:11:28.051Z,1.40
2023-04-06T12:13:56.190Z,1.10
2023-04-06T12:16:24.556Z,0.80
2023-04-06T12:18:54.825Z,1.00
2023-04-06T12:21:23.185Z,1.10
2023-04-06T12:23:51.352Z,0.90
2023-04-06T12:26:19.631Z,0.80
2023-04-06T12:28:47.763Z,0.90
2023-04-06T12:31:19.051Z,1.00
2023-04-06T12:33:49.199Z,1.10
2023-04-06T12:36:20.578Z,0.90
2023-04-06T12:38:49.380Z,1.10
2023-04-06T12:41:17.865Z,1.50
2023-04-06T12:43:46.730Z,1.70
2023-04-06T12:46:14.966Z,1.90
2023-04-06T12:48:44.494Z,1.40
2023-04-06T12:51:12.884Z,1.70
2023-04-06T12:53:42.825Z,2.00
2023-04-06T12:56:15.695Z,1.80
2023-04-06T12:58:44.095Z,1.60
2023-04-06T13:01:14.178Z,1.90
2023-04-06T13:03:44.199Z,2.60
2023-04-06T13:06:12.837Z,2.60
2023-04-06T13:08:42.943Z,2.30
2023-04-06T13:11:11.450Z,2.40
2023-04-06T13:13:40.078Z,2.80
2023-04-06T13:16:09.938Z,3.10
2023-04-06T13:18:39.954Z,3.10
2023-04-06T13:21:08.711Z,3.10
2023-04-06T13:23:37.198Z,3.50
2023-04-06T13:26:07.408Z,3.50
2023-04-06T13:28:36.111Z,3.50
2023-04-06T13:31:04.782Z,3.30
2023-04-06T13:33:33.621Z,3.60
2023-04-06T13:36:02.170Z,2.80
2023-04-06T13:38:30.686Z,3.20
2023-04-06T13:40:58.962Z,2.60
2023-04-06T13:43:28.716Z,2.80
2023-04-06T13:45:59.487Z,2.10
2023-04-06T13:48:28.011Z,2.10
2023-04-06T13:50:56.211Z,2.20
2023-04-06T13:53:24.527Z,1.80
2023-04-06T13:55:56.688Z,1.80
2023-04-06T13:58:26.084Z,1.90
2023-04-06T14:00:55.795Z,1.70
2023-04-06T14:03:24.787Z,1.70
2023-04-06T14:05:52.940Z,1.70
2023-04-06T14:08:21.863Z,2.10
2023-04-06T14:10:50.175Z,2.20
2023-04-06T14:13:18.639Z,2.20
2023-04-06T14:15:46.738Z,2.10
2023-04-06T14:18:16.331Z,1.80
2023-04-06T14:20:44.948Z,1.50
2023-04-06T14:23:13.074Z,1.60
2023-04-06T14:25:41.223Z,1.60
2023-04-06T14:28:09.545Z,1.70
2023-04-06T14:30:37.774Z,2.00
2023-04-06T14:33:06.684Z,2.10
2023-04-06T14:35:38.987Z,1.90
2023-04-06T14:38:07.238Z,2.20
2023-04-06T14:40:39.596Z,2.40
2023-04-06T14:43:10.043Z,2.40
2023-04-06T14:45:40.338Z,2.30
2023-04-06T14:48:10.031Z,2.30
2023-04-06T14:50:39.740Z,1.90
2023-04-06T14:53:08.024Z,2.40
2023-04-06T14:55:41.559Z,2.70
2023-04-06T14:58:09.674Z,2.70
2023-04-06T15:00:38.874Z,2.50
2023-04-06T15:03:07.170Z,2.60
2023-04-06T15:05:36.407Z,2.60
2023-04-06T15:08:10.396Z,2.60
2023-04-06T15:10:38.717Z,2.40
2023-04-06T15:13:07.119Z,1.80
2023-04-06T15:15:35.419Z,2.20
2023-04-06T15:18:04.320Z,2.40
2023-04-06T15:20:32.726Z,2.30
2023-04-06T15:23:02.570Z,2.40
2023-04-06T15:25:33.972Z,2.30
2023-04-06T15:28:02.269Z,2.40
2023-04-06T15:30:30.480Z,2.50
2023-04-06T15:33:01.739Z,2.40
2023-04-06T15:35:30.197Z,2.30
2023-04-06T15:37:58.438Z,2.50
2023-04-06T15:40:27.368Z,2.00
2023-04-06T15:42:59.063Z,2.20
2023-04-06T15:45:27.404Z,2.10
2023-04-06T15:47:55.910Z,2.10
2023-04-06T15:50:24.393Z,2.40
2023-04-06T15:52:52.562Z,2.00
2023-04-06T15:55:20.803Z,2.20
2023-04-06T15:57:48.926Z,2.10
2023-04-06T16:00:19.239Z,1.70
2023-04-06T16:02:47.658Z,2.10
2023-04-06T16:05:15.957Z,2.10
2023-04-06T16:07:44.331Z,2.20
2023-04-06T16:10:16.373Z,2.20
2023-04-06T16:12:44.571Z,2.00
2023-04-06T16:15:13.189Z,1.90
2023-04-06T16:17:43.526Z,1.90
2023-04-06T16:20:14.600Z,1.80
2023-04-06T16:22:42.875Z,2.00
2023-04-06T16:25:11.640Z,2.10
2023-04-06T16:27:39.952Z,1.90
2023-04-06T16:30:09.205Z,1.90
2023-04-06T16:32:37.525Z,2.00
2023-04-06T16:35:07.805Z,1.70
2023-04-06T16:37:36.239Z,1.90
2023-04-06T16:40:05.100Z,2.00
2023-04-06T16:42:33.356Z,1.80
2023-04-06T16:45:01.539Z,1.80
2023-04-06T16:47:29.763Z,1.70
2023-04-06T16:50:04.886Z,1.80
2023-04-06T16:52:35.950Z,1.80
2023-04-06T16:55:04.357Z,1.80
2023-04-06T16:57:34.091Z,1.50
2023-04-06T17:00:02.244Z,1.40
2023-04-06T17:02:31.505Z,1.40
2023-04-06T17:04:59.776Z,1.60
2023-04-06T17:07:32.455Z,1.40
2023-04-06T17:10:02.613Z,1.40
2023-04-06T17:12:30.903Z,1.50
2023-04-06T17:14:58.996Z,1.60
2023-04-06T17:17:27.138Z,1.40
2023-04-06T17:19:55.329Z,1.40
2023-04-06T17:22:23.831Z,1.50
2023-04-06T17:24:52.110Z,1.50
2023-04-06T17:27:26.718Z,1.60
2023-04-06T17:29:54.996Z,1.60
2023-04-06T17:32:23.382Z,1.50
2023-04-06T17:34:53.744Z,1.60
2023-04-06T17:37:21.888Z,1.50
2023-04-06T17:39:50.072Z,1.50
2023-04-06T17:42:18.520Z,1.50
2023-04-06T17:44:51.534Z,1.40
2023-04-06T17:47:22.139Z,1.50
2023-04-06T17:49:50.754Z,1.50
2023-04-06T17:52:18.903Z,1.40
2023-04-06T17:54:47.075Z,1.30
2023-04-06T17:57:16.389Z,1.30
2023-04-06T17:59:46.011Z,1.30
2023-04-06T18:02:16.607Z,1.30
2023-04-06T18:04:44.882Z,1.40
2023-04-06T18:07:13.382Z,1.50
2023-04-06T18:09:42.035Z,1.40
2023-04-06T18:12:10.351Z,1.40
2023-04-06T18:14:39.966Z,1.30
2023-04-06T18:17:08.450Z,1.40
2023-04-06T18:19:37.988Z,1.30
2023-04-06T18:22:06.172Z,1.30
2023-04-06T18:24:42.061Z,1.30
2023-04-06T18:27:11.047Z,1.20
2023-04-06T18:29:39.364Z,1.30
2023-04-06T18:32:07.830Z,1.20
2023-04-06T18:34:37.630Z,1.20
2023-04-06T18:37:06.008Z,1.20
2023-04-06T18:39:34.195Z,1.10
2023-04-06T18:42:03.154Z,1.10
2023-04-06T18:44:32.633Z,1.10
2023-04-06T18:47:03.721Z,1.20
2023-04-06T18:49:33.979Z,1.10
2023-04-06T18:52:05.256Z,1.00
2023-04-06T18:54:33.589Z,1.10
2023-04-06T18:57:01.837Z,1.10
2023-04-06T18:59:31.873Z,1.00
2023-04-06T19:02:00.252Z,0.90
2023-04-06T19:04:29.658Z,0.90
2023-04-06T19:06:57.842Z,1.00
2023-04-06T19:09:28.677Z,1.00
2023-04-06T19:11:57.753Z,1.00
2023-04-06T19:14:25.966Z,1.10
2023-04-06T19:16:54.240Z,1.10
2023-04-06T19:19:22.637Z,1.10
2023-04-06T19:21:50.779Z,1.00
2023-04-06T19:24:18.937Z,1.10
2023-04-06T19:26:52.722Z,1.10
2023-04-06T19:29:20.960Z,1.10
2023-04-06T19:31:50.401Z,1.00
2023-04-06T19:34:18.847Z,1.00
2023-04-06T19:36:50.021Z,1.00
2023-04-06T19:39:18.532Z,1.00
2023-04-06T19:41:46.747Z,1.00
2023-04-06T19:44:16.291Z,1.10
2023-04-06T19:46:46.500Z,1.00
2023-04-06T19:49:15.596Z,1.00
2023-04-06T19:51:43.889Z,1.00
2023-04-06T19:54:12.125Z,1.00
2023-04-06T19:56:40.867Z,1.00
2023-04-06T19:59:11.055Z,1.00
2023-04-06T20:01:41.007Z,1.00
2023-04-06T20:04:09.596Z,1.00
2023-04-06T20:06:37.913Z,0.90
2023-04-06T20:09:06.316Z,0.90
2023-04-06T20:11:34.930Z,1.00
2023-04-06T20:14:03.414Z,0.80
2023-04-06T20:16:33.878Z,0.80
2023-04-06T20:19:03.605Z,0.90
2023-04-06T20:21:32.312Z,0.90
2023-04-06T20:24:00.451Z,0.90
2023-04-06T20:26:28.815Z,0.90
2023-04-06T20:28:59.528Z,0.80
2023-04-06T20:31:28.318Z,0.80
2023-04-06T20:33:57.674Z,0.80
2023-04-06T20:36:31.719Z,0.70
2023-04-06T20:39:00.138Z,0.70
2023-04-06T20:41:31.575Z,0.70
2023-04-06T20:43:59.797Z,0.70
2023-04-06T20:46:28.169Z,0.70
2023-04-06T20:48:59.255Z,0.70
2023-04-06T20:51:29.708Z,0.80
2023-04-06T20:53:57.990Z,0.70
2023-04-06T20:56:27.229Z,0.80
2023-04-06T20:58:57.597Z,0.80
2023-04-06T21:01:25.998Z,0.80
2023-04-06T21:03:54.279Z,0.70
2023-04-06T21:06:22.678Z,0.70
2023-04-06T21:08:54.561Z,0.70
2023-04-06T21:11:25.790Z,0.70
2023-04-06T21:13:53.976Z,0.70
2023-04-06T21:16:22.422Z,0.70
2023-04-06T21:18:50.879Z,0.70
2023-04-06T21:21:19.079Z,0.70
2023-04-06T21:23:47.282Z,0.70
2023-04-06T21:26:16.901Z,0.70
2023-04-06T21:28:45.947Z,0.80
2023-04-06T21:31:16.598Z,0.80
2023-04-06T21:33:44.828Z,0.80
2023-04-06T21:36:13.043Z,0.80
2023-04-06T21:38:41.199Z,0.80
2023-04-06T21:41:09.499Z,0.80
2023-04-06T21:43:42.179Z,0.80
2023-04-06T21:46:10.717Z,0.70
2023-04-06T21:48:38.867Z,0.70
2023-04-06T21:51:07.173Z,0.70
2023-04-06T21:53:35.371Z,0.80
2023-04-06T21:56:03.604Z,0.80
2023-04-06T21:58:31.722Z,0.80
2023-04-06T22:01:05.016Z,0.80
2023-04-06T22:03:33.511Z,0.80
2023-04-06T22:06:07.257Z,0.80
2023-04-06T22:08:35.443Z,0.80
2023-04-06T22:11:11.514Z,0.80
2023-04-06T22:13:40.425Z,0.80
2023-04-06T22:16:10.196Z,0.80
2023-04-06T22:18:45.468Z,0.70
2023-04-06T22:21:13.621Z,0.70
2023-04-06T22:23:42.650Z,0.70
2023-04-06T22:26:12.119Z,0.70
2023-04-06T22:28:40.436Z,0.70
2023-04-06T22:31:08.558Z,0.70
2023-04-06T22:33:40.506Z,0.70
2023-04-06T22:36:09.337Z,0.70
2023-04-06T22:38:37.664Z,0.70
2023-04-06T22:41:07.191Z,0.70
2023-04-06T22:43:36.557Z,0.70
2023-04-06T22:46:04.908Z,0.70
2023-04-06T22:48:33.087Z,0.80
2023-04-06T22:51:02.612Z,0.70
2023-04-06T22:53:30.955Z,0.70
2023-04-06T22:55:59.331Z,0.70
2023-04-06T22:58:27.431Z,0.80
2023-04-06T23:00:55.667Z,0.80
2023-04-06T23:03:24.061Z,0.80
2023-04-06T23:05:52.680Z,0.80
2023-04-06T23:08:22.394Z,0.70
2023-04-06T23:10:51.592Z,0.70
2023-04-06T23:13:19.764Z,0.70
2023-04-06T23:15:48.091Z,0.70
2023-04-06T23:18:16.544Z,0.70
2023-04-06T23:20:44.790Z,0.70
2023-04-06T23:23:13.056Z,0.70
2023-04-06T23:25:42.796Z,0.70
2023-04-06T23:28:10.927Z,0.70
2023-04-06T23:30:39.086Z,0.70
2023-04-06T23:33:07.437Z,0.70
2023-04-06T23:35:35.937Z,0.70
2023-04-06T23:38:04.127Z,0.70
2023-04-06T23:40:32.320Z,0.70
2023-04-06T23:43:02.016Z,0.70
2023-04-06T23:45:30.106Z,0.70
2023-04-06T23:48:01.048Z,0.70
2023-04-06T23:50:29.354Z,0.60
2023-04-06T23:52:59.987Z,0.70
2023-04-06T23:55:28.162Z,0.60
2023-04-06T23:57:56.721Z,0.60
